sensor_id;sensor_type;location;lat;lon;timestamp;temperature;humidity
2639;DHT22;1329;51.384;7.122;2024-02-21T00:01:35;11.00;99.90
2639;DHT22;1329;51.384;7.122;2024-02-21T00:04:03;11.00;99.90
2639;DHT22;1329;51.384;7.122;2024-02-21T00:06:31;11.00;99.90
2639;DHT22;1329;51.384;7.122;2024-02-21T00:08:59;11.00;99.90
2639;DHT22;1329;51.384;7.122;2024-02-21T00:11:26;11.00;99.90
2639;DHT22;1329;51.384;7.122;2024-02-21T00:13:54;10.90;99.90
2639;DHT22;1329;51.384;7.122;2024-02-21T00:16:22;11.00;99.90
2639;DHT22;1329;51.384;7.122;2024-02-21T00:18:49;11.00;99.90
2639;DHT22;1329;51.384;7.122;2024-02-21T00:21:16;11.00;99.90
2639;DHT22;1329;51.384;7.122;2024-02-21T00:23:44;11.00;99.90
2639;DHT22;1329;51.384;7.122;2024-02-21T00:26:14;10.90;99.90
2639;DHT22;1329;51.384;7.122;2024-02-21T00:28:41;11.00;99.90
2639;DHT22;1329;51.384;7.122;2024-02-21T00:31:08;11.00;99.90
2639;DHT22;1329;51.384;7.122;2024-02-21T00:33:36;11.00;99.90
2639;DHT22;1329;51.384;7.122;2024-02-21T00:36:03;11.00;99.90
2639;DHT22;1329;51.384;7.122;2024-02-21T00:38:31;11.00;99.90
2639;DHT22;1329;51.384;7.122;2024-02-21T00:40:58;11.00;99.90
2639;DHT22;1329;51.384;7.122;2024-02-21T00:43:28;11.00;99.90
2639;DHT22;1329;51.384;7.122;2024-02-21T00:45:55;11.00;99.90
2639;DHT22;1329;51.384;7.122;2024-02-21T00:48:22;11.00;99.90
2639;DHT22;1329;51.384;7.122;2024-02-21T00:50:49;11.00;99.90
2639;DHT22;1329;51.384;7.122;2024-02-21T00:53:17;11.00;99.90
2639;DHT22;1329;51.384;7.122;2024-02-21T00:55:44;11.00;99.90
2639;DHT22;1329;51.384;7.122;2024-02-21T00:58:12;11.00;99.90
2639;DHT22;1329;51.384;7.122;2024-02-21T01:00:40;11.00;99.90
2639;DHT22;1329;51.384;7.122;2024-02-21T01:03:07;11.00;99.90
2639;DHT22;1329;51.384;7.122;2024-02-21T01:05:34;11.00;99.90
2639;DHT22;1329;51.384;7.122;2024-02-21T01:08:01;11.00;99.90
2639;DHT22;1329;51.384;7.122;2024-02-21T01:10:29;11.00;99.90
2639;DHT22;1329;51.384;7.122;2024-02-21T01:12:56;11.00;99.90
2639;DHT22;1329;51.384;7.122;2024-02-21T01:15:24;11.00;99.90
2639;DHT22;1329;51.384;7.122;2024-02-21T01:17:53;11.00;99.90
2639;DHT22;1329;51.384;7.122;2024-02-21T01:20:21;11.00;99.90
2639;DHT22;1329;51.384;7.122;2024-02-21T01:22:48;11.00;99.90
2639;DHT22;1329;51.384;7.122;2024-02-21T01:25:15;11.00;99.90
2639;DHT22;1329;51.384;7.122;2024-02-21T01:27:43;11.00;99.90
2639;DHT22;1329;51.384;7.122;2024-02-21T01:30:11;10.90;99.90
2639;DHT22;1329;51.384;7.122;2024-02-21T01:32:39;11.00;99.90
2639;DHT22;1329;51.384;7.122;2024-02-21T01:35:08;11.00;99.90
2639;DHT22;1329;51.384;7.122;2024-02-21T01:37:38;10.90;99.90
2639;DHT22;1329;51.384;7.122;2024-02-21T01:40:07;11.00;99.90
2639;DHT22;1329;51.384;7.122;2024-02-21T01:42:38;10.90;99.90
2639;DHT22;1329;51.384;7.122;2024-02-21T01:45:07;10.90;99.90
2639;DHT22;1329;51.384;7.122;2024-02-21T01:47:35;10.90;99.90
2639;DHT22;1329;51.384;7.122;2024-02-21T01:50:03;10.90;99.90
2639;DHT22;1329;51.384;7.122;2024-02-21T01:52:33;10.90;99.90
2639;DHT22;1329;51.384;7.122;2024-02-21T01:55:01;10.90;99.90
2639;DHT22;1329;51.384;7.122;2024-02-21T01:57:29;10.90;99.90
2639;DHT22;1329;51.384;7.122;2024-02-21T01:59:57;10.80;99.90
2639;DHT22;1329;51.384;7.122;2024-02-21T02:02:24;10.90;99.90
2639;DHT22;1329;51.384;7.122;2024-02-21T02:04:52;10.90;99.90
2639;DHT22;1329;51.384;7.122;2024-02-21T02:07:19;10.80;99.90
2639;DHT22;1329;51.384;7.122;2024-02-21T02:09:48;10.80;99.90
2639;DHT22;1329;51.384;7.122;2024-02-21T02:12:15;10.90;99.90
2639;DHT22;1329;51.384;7.122;2024-02-21T02:14:42;10.90;99.90
2639;DHT22;1329;51.384;7.122;2024-02-21T02:17:10;10.90;99.90
2639;DHT22;1329;51.384;7.122;2024-02-21T02:19:37;10.90;99.90
2639;DHT22;1329;51.384;7.122;2024-02-21T02:22:09;10.90;99.90
2639;DHT22;1329;51.384;7.122;2024-02-21T02:24:39;10.90;99.90
2639;DHT22;1329;51.384;7.122;2024-02-21T02:27:07;10.90;99.90
2639;DHT22;1329;51.384;7.122;2024-02-21T02:29:34;10.90;99.90
2639;DHT22;1329;51.384;7.122;2024-02-21T02:32:01;10.90;99.90
2639;DHT22;1329;51.384;7.122;2024-02-21T02:34:28;10.90;99.90
2639;DHT22;1329;51.384;7.122;2024-02-21T02:36:56;10.90;99.90
2639;DHT22;1329;51.384;7.122;2024-02-21T02:39:23;10.90;99.90
2639;DHT22;1329;51.384;7.122;2024-02-21T02:41:52;10.90;99.90
2639;DHT22;1329;51.384;7.122;2024-02-21T02:44:19;10.90;99.90
2639;DHT22;1329;51.384;7.122;2024-02-21T02:46:46;10.90;99.90
2639;DHT22;1329;51.384;7.122;2024-02-21T02:49:13;10.80;99.90
2639;DHT22;1329;51.384;7.122;2024-02-21T02:51:41;10.80;99.90
2639;DHT22;1329;51.384;7.122;2024-02-21T02:54:09;10.80;99.90
2639;DHT22;1329;51.384;7.122;2024-02-21T02:56:36;10.80;99.90
2639;DHT22;1329;51.384;7.122;2024-02-21T02:59:04;10.80;99.90
2639;DHT22;1329;51.384;7.122;2024-02-21T03:01:33;10.80;99.90
2639;DHT22;1329;51.384;7.122;2024-02-21T03:04:00;10.80;99.90
2639;DHT22;1329;51.384;7.122;2024-02-21T03:06:27;10.70;99.90
2639;DHT22;1329;51.384;7.122;2024-02-21T03:08:55;10.70;99.90
2639;DHT22;1329;51.384;7.122;2024-02-21T03:11:22;10.70;99.90
2639;DHT22;1329;51.384;7.122;2024-02-21T03:13:54;10.60;99.90
2639;DHT22;1329;51.384;7.122;2024-02-21T03:16:24;10.60;99.90
2639;DHT22;1329;51.384;7.122;2024-02-21T03:18:52;10.60;99.90
2639;DHT22;1329;51.384;7.122;2024-02-21T03:21:20;10.60;99.90
2639;DHT22;1329;51.384;7.122;2024-02-21T03:23:47;10.60;99.90
2639;DHT22;1329;51.384;7.122;2024-02-21T03:26:14;10.60;99.90
2639;DHT22;1329;51.384;7.122;2024-02-21T03:28:42;10.60;99.90
2639;DHT22;1329;51.384;7.122;2024-02-21T03:31:11;10.60;99.90
2639;DHT22;1329;51.384;7.122;2024-02-21T03:33:41;10.60;99.90
2639;DHT22;1329;51.384;7.122;2024-02-21T03:36:13;10.60;99.90
2639;DHT22;1329;51.384;7.122;2024-02-21T03:38:41;10.60;99.90
2639;DHT22;1329;51.384;7.122;2024-02-21T03:41:07;10.70;99.90
2639;DHT22;1329;51.384;7.122;2024-02-21T03:43:35;10.60;99.90
2639;DHT22;1329;51.384;7.122;2024-02-21T03:46:02;10.60;99.90
2639;DHT22;1329;51.384;7.122;2024-02-21T03:48:29;10.60;99.90
2639;DHT22;1329;51.384;7.122;2024-02-21T03:50:58;10.70;99.90
2639;DHT22;1329;51.384;7.122;2024-02-21T03:53:25;10.60;99.90
2639;DHT22;1329;51.384;7.122;2024-02-21T03:55:52;10.60;99.90
2639;DHT22;1329;51.384;7.122;2024-02-21T03:58:19;10.70;99.90
2639;DHT22;1329;51.384;7.122;2024-02-21T04:00:46;10.70;99.90
2639;DHT22;1329;51.384;7.122;2024-02-21T04:03:13;10.70;99.90
2639;DHT22;1329;51.384;7.122;2024-02-21T04:05:40;10.70;99.90
2639;DHT22;1329;51.384;7.122;2024-02-21T04:08:09;10.60;99.90
2639;DHT22;1329;51.384;7.122;2024-02-21T04:10:35;10.70;99.90
2639;DHT22;1329;51.384;7.122;2024-02-21T04:13:03;10.70;99.90
2639;DHT22;1329;51.384;7.122;2024-02-21T04:15:31;10.70;99.90
2639;DHT22;1329;51.384;7.122;2024-02-21T04:17:59;10.70;99.90
2639;DHT22;1329;51.384;7.122;2024-02-21T04:20:26;10.70;99.90
2639;DHT22;1329;51.384;7.122;2024-02-21T04:22:54;10.70;99.90
2639;DHT22;1329;51.384;7.122;2024-02-21T04:25:23;10.70;99.90
2639;DHT22;1329;51.384;7.122;2024-02-21T04:27:52;10.70;99.90
2639;DHT22;1329;51.384;7.122;2024-02-21T04:30:19;10.70;99.90
2639;DHT22;1329;51.384;7.122;2024-02-21T04:32:46;10.70;99.90
2639;DHT22;1329;51.384;7.122;2024-02-21T04:35:14;10.80;99.90
2639;DHT22;1329;51.384;7.122;2024-02-21T04:37:43;10.70;99.90
2639;DHT22;1329;51.384;7.122;2024-02-21T04:40:11;10.70;99.90
2639;DHT22;1329;51.384;7.122;2024-02-21T04:42:41;10.80;99.90
2639;DHT22;1329;51.384;7.122;2024-02-21T04:45:09;10.80;99.90
2639;DHT22;1329;51.384;7.122;2024-02-21T04:47:37;10.80;99.90
2639;DHT22;1329;51.384;7.122;2024-02-21T04:50:05;10.80;99.90
2639;DHT22;1329;51.384;7.122;2024-02-21T04:52:32;10.80;99.90
2639;DHT22;1329;51.384;7.122;2024-02-21T04:55:00;10.80;99.90
2639;DHT22;1329;51.384;7.122;2024-02-21T04:57:27;10.80;99.90
2639;DHT22;1329;51.384;7.122;2024-02-21T04:59:56;10.80;99.90
2639;DHT22;1329;51.384;7.122;2024-02-21T05:02:23;10.80;99.90
2639;DHT22;1329;51.384;7.122;2024-02-21T05:04:52;10.80;99.90
2639;DHT22;1329;51.384;7.122;2024-02-21T05:07:19;10.80;99.90
2639;DHT22;1329;51.384;7.122;2024-02-21T05:09:47;10.80;99.90
2639;DHT22;1329;51.384;7.122;2024-02-21T05:12:14;10.80;99.90
2639;DHT22;1329;51.384;7.122;2024-02-21T05:14:43;10.80;99.90
2639;DHT22;1329;51.384;7.122;2024-02-21T05:17:12;10.80;99.90
2639;DHT22;1329;51.384;7.122;2024-02-21T05:19:40;10.80;99.90
2639;DHT22;1329;51.384;7.122;2024-02-21T05:22:07;10.80;99.90
2639;DHT22;1329;51.384;7.122;2024-02-21T05:24:34;10.80;99.90
2639;DHT22;1329;51.384;7.122;2024-02-21T05:27:02;10.80;99.90
2639;DHT22;1329;51.384;7.122;2024-02-21T05:29:30;10.80;99.90
2639;DHT22;1329;51.384;7.122;2024-02-21T05:31:57;10.80;99.90
2639;DHT22;1329;51.384;7.122;2024-02-21T05:34:27;10.80;99.90
2639;DHT22;1329;51.384;7.122;2024-02-21T05:36:54;10.80;99.90
2639;DHT22;1329;51.384;7.122;2024-02-21T05:39:23;10.80;99.90
2639;DHT22;1329;51.384;7.122;2024-02-21T05:41:50;10.80;99.90
2639;DHT22;1329;51.384;7.122;2024-02-21T05:44:18;10.80;99.90
2639;DHT22;1329;51.384;7.122;2024-02-21T05:46:47;10.80;99.90
2639;DHT22;1329;51.384;7.122;2024-02-21T05:49:15;10.80;99.90
2639;DHT22;1329;51.384;7.122;2024-02-21T05:51:43;10.80;99.90
2639;DHT22;1329;51.384;7.122;2024-02-21T05:54:11;10.80;99.90
2639;DHT22;1329;51.384;7.122;2024-02-21T05:56:38;10.80;99.90
2639;DHT22;1329;51.384;7.122;2024-02-21T05:59:05;10.80;99.90
2639;DHT22;1329;51.384;7.122;2024-02-21T06:01:33;10.80;99.90
2639;DHT22;1329;51.384;7.122;2024-02-21T06:04:00;10.80;99.90
2639;DHT22;1329;51.384;7.122;2024-02-21T06:06:27;10.80;99.90
2639;DHT22;1329;51.384;7.122;2024-02-21T06:08:56;10.80;99.90
2639;DHT22;1329;51.384;7.122;2024-02-21T06:11:24;10.80;99.90
2639;DHT22;1329;51.384;7.122;2024-02-21T06:13:52;10.80;99.90
2639;DHT22;1329;51.384;7.122;2024-02-21T06:16:19;10.80;99.90
2639;DHT22;1329;51.384;7.122;2024-02-21T06:18:46;10.80;99.90
2639;DHT22;1329;51.384;7.122;2024-02-21T06:21:13;10.80;99.90
2639;DHT22;1329;51.384;7.122;2024-02-21T06:23:42;10.80;99.90
2639;DHT22;1329;51.384;7.122;2024-02-21T06:26:11;10.70;99.90
2639;DHT22;1329;51.384;7.122;2024-02-21T06:28:39;10.70;99.90
2639;DHT22;1329;51.384;7.122;2024-02-21T06:31:06;10.80;99.90
2639;DHT22;1329;51.384;7.122;2024-02-21T06:33:33;10.80;99.90
2639;DHT22;1329;51.384;7.122;2024-02-21T06:36:00;10.80;99.90
2639;DHT22;1329;51.384;7.122;2024-02-21T06:38:28;10.80;99.90
2639;DHT22;1329;51.384;7.122;2024-02-21T06:40:56;10.80;99.90
2639;DHT22;1329;51.384;7.122;2024-02-21T06:43:25;10.80;99.90
2639;DHT22;1329;51.384;7.122;2024-02-21T06:45:54;10.80;99.90
2639;DHT22;1329;51.384;7.122;2024-02-21T06:48:22;10.80;99.90
2639;DHT22;1329;51.384;7.122;2024-02-21T06:50:50;10.80;99.90
2639;DHT22;1329;51.384;7.122;2024-02-21T06:53:17;10.80;99.90
2639;DHT22;1329;51.384;7.122;2024-02-21T06:55:44;10.80;99.90
2639;DHT22;1329;51.384;7.122;2024-02-21T06:58:12;10.80;99.90
2639;DHT22;1329;51.384;7.122;2024-02-21T07:00:43;10.80;99.90
2639;DHT22;1329;51.384;7.122;2024-02-21T07:03:10;10.80;99.90
2639;DHT22;1329;51.384;7.122;2024-02-21T07:05:38;10.80;99.90
2639;DHT22;1329;51.384;7.122;2024-02-21T07:08:05;10.80;99.90
2639;DHT22;1329;51.384;7.122;2024-02-21T07:10:33;10.80;99.90
2639;DHT22;1329;51.384;7.122;2024-02-21T07:13:00;10.80;99.90
2639;DHT22;1329;51.384;7.122;2024-02-21T07:15:28;10.90;99.90
2639;DHT22;1329;51.384;7.122;2024-02-21T07:17:58;10.90;99.90
2639;DHT22;1329;51.384;7.122;2024-02-21T07:20:25;10.90;99.90
2639;DHT22;1329;51.384;7.122;2024-02-21T07:22:53;10.90;99.90
2639;DHT22;1329;51.384;7.122;2024-02-21T07:25:20;10.90;99.90
2639;DHT22;1329;51.384;7.122;2024-02-21T07:27:48;10.90;99.90
2639;DHT22;1329;51.384;7.122;2024-02-21T07:30:16;10.90;99.90
2639;DHT22;1329;51.384;7.122;2024-02-21T07:32:44;10.90;99.90
2639;DHT22;1329;51.384;7.122;2024-02-21T07:35:14;11.00;99.90
2639;DHT22;1329;51.384;7.122;2024-02-21T07:37:41;11.00;99.90
2639;DHT22;1329;51.384;7.122;2024-02-21T07:40:12;11.00;99.90
2639;DHT22;1329;51.384;7.122;2024-02-21T07:42:40;11.10;99.90
2639;DHT22;1329;51.384;7.122;2024-02-21T07:45:08;11.10;99.90
2639;DHT22;1329;51.384;7.122;2024-02-21T07:47:36;11.10;99.90
2639;DHT22;1329;51.384;7.122;2024-02-21T07:50:04;11.10;99.90
2639;DHT22;1329;51.384;7.122;2024-02-21T07:52:34;11.10;99.90
2639;DHT22;1329;51.384;7.122;2024-02-21T07:55:02;11.20;99.90
2639;DHT22;1329;51.384;7.122;2024-02-21T07:57:29;11.20;99.90
2639;DHT22;1329;51.384;7.122;2024-02-21T07:59:57;11.20;99.90
2639;DHT22;1329;51.384;7.122;2024-02-21T08:02:24;11.20;99.90
2639;DHT22;1329;51.384;7.122;2024-02-21T08:04:51;11.20;99.90
2639;DHT22;1329;51.384;7.122;2024-02-21T08:07:19;11.20;99.90
2639;DHT22;1329;51.384;7.122;2024-02-21T08:09:48;11.20;99.90
2639;DHT22;1329;51.384;7.122;2024-02-21T08:12:15;11.20;99.90
2639;DHT22;1329;51.384;7.122;2024-02-21T08:14:43;11.20;99.90
2639;DHT22;1329;51.384;7.122;2024-02-21T08:17:10;11.20;99.90
2639;DHT22;1329;51.384;7.122;2024-02-21T08:19:38;11.20;99.90
2639;DHT22;1329;51.384;7.122;2024-02-21T08:22:06;11.30;99.90
2639;DHT22;1329;51.384;7.122;2024-02-21T08:24:34;11.30;99.90
2639;DHT22;1329;51.384;7.122;2024-02-21T08:27:05;11.40;99.90
2639;DHT22;1329;51.384;7.122;2024-02-21T08:29:33;11.40;99.90
2639;DHT22;1329;51.384;7.122;2024-02-21T08:32:00;11.50;99.90
2639;DHT22;1329;51.384;7.122;2024-02-21T08:34:27;11.40;99.90
2639;DHT22;1329;51.384;7.122;2024-02-21T08:36:56;11.50;99.90
2639;DHT22;1329;51.384;7.122;2024-02-21T08:39:23;11.50;99.90
2639;DHT22;1329;51.384;7.122;2024-02-21T08:41:51;11.40;99.90
2639;DHT22;1329;51.384;7.122;2024-02-21T08:44:22;11.40;99.90
2639;DHT22;1329;51.384;7.122;2024-02-21T08:46:51;11.40;99.90
2639;DHT22;1329;51.384;7.122;2024-02-21T08:49:19;11.40;99.90
2639;DHT22;1329;51.384;7.122;2024-02-21T08:51:47;11.40;99.90
2639;DHT22;1329;51.384;7.122;2024-02-21T08:54:14;11.40;99.90
2639;DHT22;1329;51.384;7.122;2024-02-21T08:56:42;11.30;99.90
2639;DHT22;1329;51.384;7.122;2024-02-21T08:59:09;11.30;99.90
2639;DHT22;1329;51.384;7.122;2024-02-21T09:01:38;11.30;99.90
2639;DHT22;1329;51.384;7.122;2024-02-21T09:04:06;11.30;99.90
2639;DHT22;1329;51.384;7.122;2024-02-21T09:06:33;11.30;99.90
2639;DHT22;1329;51.384;7.122;2024-02-21T09:09:04;11.30;99.90
2639;DHT22;1329;51.384;7.122;2024-02-21T09:11:33;11.30;99.90
2639;DHT22;1329;51.384;7.122;2024-02-21T09:14:01;11.20;99.90
2639;DHT22;1329;51.384;7.122;2024-02-21T09:16:30;11.20;99.90
2639;DHT22;1329;51.384;7.122;2024-02-21T09:18:59;11.20;99.90
2639;DHT22;1329;51.384;7.122;2024-02-21T09:21:27;11.20;99.90
2639;DHT22;1329;51.384;7.122;2024-02-21T09:23:54;11.20;99.90
2639;DHT22;1329;51.384;7.122;2024-02-21T09:26:22;11.10;99.90
2639;DHT22;1329;51.384;7.122;2024-02-21T09:28:52;11.10;99.90
2639;DHT22;1329;51.384;7.122;2024-02-21T09:31:20;11.10;99.90
2639;DHT22;1329;51.384;7.122;2024-02-21T09:33:47;11.10;99.90
2639;DHT22;1329;51.384;7.122;2024-02-21T09:36:16;11.10;99.90
2639;DHT22;1329;51.384;7.122;2024-02-21T09:38:43;11.10;99.90
2639;DHT22;1329;51.384;7.122;2024-02-21T09:41:15;11.10;99.90
2639;DHT22;1329;51.384;7.122;2024-02-21T09:43:44;11.10;99.90
2639;DHT22;1329;51.384;7.122;2024-02-21T09:46:17;11.10;99.90
2639;DHT22;1329;51.384;7.122;2024-02-21T09:49:00;11.20;99.90
2639;DHT22;1329;51.384;7.122;2024-02-21T09:51:35;11.20;99.90
2639;DHT22;1329;51.384;7.122;2024-02-21T09:54:04;11.20;99.90
2639;DHT22;1329;51.384;7.122;2024-02-21T09:56:35;11.10;99.90
2639;DHT22;1329;51.384;7.122;2024-02-21T09:59:03;11.20;99.90
2639;DHT22;1329;51.384;7.122;2024-02-21T10:01:31;11.20;99.90
2639;DHT22;1329;51.384;7.122;2024-02-21T10:03:58;11.20;99.90
2639;DHT22;1329;51.384;7.122;2024-02-21T10:06:26;11.20;99.90
2639;DHT22;1329;51.384;7.122;2024-02-21T10:08:54;11.20;99.90
2639;DHT22;1329;51.384;7.122;2024-02-21T10:11:24;11.20;99.90
2639;DHT22;1329;51.384;7.122;2024-02-21T10:14:03;11.30;99.90
2639;DHT22;1329;51.384;7.122;2024-02-21T10:16:31;11.30;99.90
2639;DHT22;1329;51.384;7.122;2024-02-21T10:18:59;11.30;99.90
2639;DHT22;1329;51.384;7.122;2024-02-21T10:21:26;11.30;99.90
2639;DHT22;1329;51.384;7.122;2024-02-21T10:23:56;11.30;99.90
2639;DHT22;1329;51.384;7.122;2024-02-21T10:26:24;11.40;99.90
2639;DHT22;1329;51.384;7.122;2024-02-21T10:28:51;11.50;99.90
2639;DHT22;1329;51.384;7.122;2024-02-21T10:31:24;11.50;99.90
2639;DHT22;1329;51.384;7.122;2024-02-21T10:33:56;11.60;99.90
2639;DHT22;1329;51.384;7.122;2024-02-21T10:36:24;11.70;99.90
2639;DHT22;1329;51.384;7.122;2024-02-21T10:38:52;11.70;99.90
2639;DHT22;1329;51.384;7.122;2024-02-21T10:41:22;11.80;99.90
2639;DHT22;1329;51.384;7.122;2024-02-21T10:43:51;11.90;99.90
2639;DHT22;1329;51.384;7.122;2024-02-21T10:46:20;11.90;99.90
2639;DHT22;1329;51.384;7.122;2024-02-21T10:48:56;12.00;99.90
2639;DHT22;1329;51.384;7.122;2024-02-21T10:51:33;12.00;99.90
2639;DHT22;1329;51.384;7.122;2024-02-21T10:54:13;12.10;99.90
2639;DHT22;1329;51.384;7.122;2024-02-21T10:56:50;12.10;99.90
2639;DHT22;1329;51.384;7.122;2024-02-21T10:59:18;12.20;99.90
2639;DHT22;1329;51.384;7.122;2024-02-21T11:01:47;12.20;99.90
2639;DHT22;1329;51.384;7.122;2024-02-21T11:04:15;12.30;99.90
2639;DHT22;1329;51.384;7.122;2024-02-21T11:06:43;12.30;99.90
2639;DHT22;1329;51.384;7.122;2024-02-21T11:09:11;12.40;99.90
2639;DHT22;1329;51.384;7.122;2024-02-21T11:11:40;12.40;99.90
2639;DHT22;1329;51.384;7.122;2024-02-21T11:14:11;12.40;99.90
2639;DHT22;1329;51.384;7.122;2024-02-21T11:16:44;12.40;99.90
2639;DHT22;1329;51.384;7.122;2024-02-21T11:19:20;12.50;99.90
2639;DHT22;1329;51.384;7.122;2024-02-21T11:21:48;12.60;99.90
2639;DHT22;1329;51.384;7.122;2024-02-21T11:24:25;12.60;99.90
2639;DHT22;1329;51.384;7.122;2024-02-21T11:26:54;12.60;99.90
2639;DHT22;1329;51.384;7.122;2024-02-21T11:29:26;12.70;99.90
2639;DHT22;1329;51.384;7.122;2024-02-21T11:31:58;12.70;99.90
2639;DHT22;1329;51.384;7.122;2024-02-21T11:34:32;12.70;99.90
2639;DHT22;1329;51.384;7.122;2024-02-21T11:36:59;12.80;99.90
2639;DHT22;1329;51.384;7.122;2024-02-21T11:39:26;12.80;99.90
2639;DHT22;1329;51.384;7.122;2024-02-21T11:42:03;12.90;99.90
2639;DHT22;1329;51.384;7.122;2024-02-21T11:44:33;12.90;99.90
2639;DHT22;1329;51.384;7.122;2024-02-21T11:47:01;12.90;99.90
2639;DHT22;1329;51.384;7.122;2024-02-21T11:49:29;13.00;99.90
2639;DHT22;1329;51.384;7.122;2024-02-21T11:51:58;13.00;99.90
2639;DHT22;1329;51.384;7.122;2024-02-21T11:54:26;13.00;99.90
2639;DHT22;1329;51.384;7.122;2024-02-21T11:56:54;13.00;99.90
2639;DHT22;1329;51.384;7.122;2024-02-21T11:59:21;13.10;99.90
2639;DHT22;1329;51.384;7.122;2024-02-21T12:01:49;13.10;99.90
2639;DHT22;1329;51.384;7.122;2024-02-21T12:04:19;13.10;99.90
2639;DHT22;1329;51.384;7.122;2024-02-21T12:06:49;13.10;99.90
2639;DHT22;1329;51.384;7.122;2024-02-21T12:09:16;13.10;99.90
2639;DHT22;1329;51.384;7.122;2024-02-21T12:11:44;13.20;99.90
2639;DHT22;1329;51.384;7.122;2024-02-21T12:14:16;13.20;99.90
2639;DHT22;1329;51.384;7.122;2024-02-21T12:16:45;13.20;99.90
2639;DHT22;1329;51.384;7.122;2024-02-21T12:19:14;13.20;99.90
2639;DHT22;1329;51.384;7.122;2024-02-21T12:21:42;13.20;99.90
2639;DHT22;1329;51.384;7.122;2024-02-21T12:24:14;13.20;99.90
2639;DHT22;1329;51.384;7.122;2024-02-21T12:26:42;13.30;99.90
2639;DHT22;1329;51.384;7.122;2024-02-21T12:29:09;13.20;99.90
2639;DHT22;1329;51.384;7.122;2024-02-21T12:31:37;13.20;99.90
2639;DHT22;1329;51.384;7.122;2024-02-21T12:34:04;13.30;99.90
2639;DHT22;1329;51.384;7.122;2024-02-21T12:36:33;13.20;99.90
2639;DHT22;1329;51.384;7.122;2024-02-21T12:39:00;13.20;99.90
2639;DHT22;1329;51.384;7.122;2024-02-21T12:41:28;13.20;99.90
2639;DHT22;1329;51.384;7.122;2024-02-21T12:43:57;13.20;99.90
2639;DHT22;1329;51.384;7.122;2024-02-21T12:46:24;13.30;99.90
2639;DHT22;1329;51.384;7.122;2024-02-21T12:48:51;13.30;99.90
2639;DHT22;1329;51.384;7.122;2024-02-21T12:51:18;13.30;99.90
2639;DHT22;1329;51.384;7.122;2024-02-21T12:53:48;13.40;99.90
2639;DHT22;1329;51.384;7.122;2024-02-21T12:56:15;13.40;99.90
2639;DHT22;1329;51.384;7.122;2024-02-21T12:58:42;13.40;99.90
2639;DHT22;1329;51.384;7.122;2024-02-21T13:01:10;13.40;99.90
2639;DHT22;1329;51.384;7.122;2024-02-21T13:03:37;13.50;99.90
2639;DHT22;1329;51.384;7.122;2024-02-21T13:06:06;13.60;99.90
2639;DHT22;1329;51.384;7.122;2024-02-21T13:08:36;13.60;99.90
2639;DHT22;1329;51.384;7.122;2024-02-21T13:11:04;13.70;99.90
2639;DHT22;1329;51.384;7.122;2024-02-21T13:13:32;13.80;99.90
2639;DHT22;1329;51.384;7.122;2024-02-21T13:15:59;13.80;99.90
2639;DHT22;1329;51.384;7.122;2024-02-21T13:18:26;13.80;99.90
2639;DHT22;1329;51.384;7.122;2024-02-21T13:20:53;13.80;99.90
2639;DHT22;1329;51.384;7.122;2024-02-21T13:23:20;13.90;99.90
2639;DHT22;1329;51.384;7.122;2024-02-21T13:25:47;13.90;99.90
2639;DHT22;1329;51.384;7.122;2024-02-21T13:28:16;13.90;99.90
2639;DHT22;1329;51.384;7.122;2024-02-21T13:30:43;13.90;99.90
2639;DHT22;1329;51.384;7.122;2024-02-21T13:33:10;13.90;99.90
2639;DHT22;1329;51.384;7.122;2024-02-21T13:35:37;13.90;99.90
2639;DHT22;1329;51.384;7.122;2024-02-21T13:38:05;14.00;99.90
2639;DHT22;1329;51.384;7.122;2024-02-21T13:40:32;14.00;99.90
2639;DHT22;1329;51.384;7.122;2024-02-21T13:42:59;14.00;99.90
2639;DHT22;1329;51.384;7.122;2024-02-21T13:45:28;14.00;99.90
2639;DHT22;1329;51.384;7.122;2024-02-21T13:47:57;14.00;99.90
2639;DHT22;1329;51.384;7.122;2024-02-21T13:50:30;14.00;99.90
2639;DHT22;1329;51.384;7.122;2024-02-21T13:52:57;14.00;96.10
2639;DHT22;1329;51.384;7.122;2024-02-21T13:55:25;14.00;99.90
2639;DHT22;1329;51.384;7.122;2024-02-21T13:57:52;14.00;99.90
2639;DHT22;1329;51.384;7.122;2024-02-21T14:00:19;14.00;99.90
2639;DHT22;1329;51.384;7.122;2024-02-21T14:02:48;14.00;99.90
2639;DHT22;1329;51.384;7.122;2024-02-21T14:05:15;13.90;97.90
2639;DHT22;1329;51.384;7.122;2024-02-21T14:07:42;13.90;99.90
2639;DHT22;1329;51.384;7.122;2024-02-21T14:10:09;13.90;98.90
2639;DHT22;1329;51.384;7.122;2024-02-21T14:12:36;13.90;99.40
2639;DHT22;1329;51.384;7.122;2024-02-21T14:15:05;13.80;98.80
2639;DHT22;1329;51.384;7.122;2024-02-21T14:17:32;13.90;98.00
2639;DHT22;1329;51.384;7.122;2024-02-21T14:20:02;13.80;98.40
2639;DHT22;1329;51.384;7.122;2024-02-21T14:22:30;13.80;96.10
2639;DHT22;1329;51.384;7.122;2024-02-21T14:24:57;13.80;97.20
2639;DHT22;1329;51.384;7.122;2024-02-21T14:27:24;13.70;94.30
2639;DHT22;1329;51.384;7.122;2024-02-21T14:29:53;13.70;95.20
2639;DHT22;1329;51.384;7.122;2024-02-21T14:32:20;13.70;94.70
2639;DHT22;1329;51.384;7.122;2024-02-21T14:34:48;13.70;95.60
2639;DHT22;1329;51.384;7.122;2024-02-21T14:37:16;13.70;92.70
2639;DHT22;1329;51.384;7.122;2024-02-21T14:39:43;13.70;91.60
2639;DHT22;1329;51.384;7.122;2024-02-21T14:42:10;13.70;93.90
2639;DHT22;1329;51.384;7.122;2024-02-21T14:44:37;13.70;94.30
2639;DHT22;1329;51.384;7.122;2024-02-21T14:47:05;13.60;94.40
2639;DHT22;1329;51.384;7.122;2024-02-21T14:49:32;13.60;93.60
2639;DHT22;1329;51.384;7.122;2024-02-21T14:51:59;13.60;95.00
2639;DHT22;1329;51.384;7.122;2024-02-21T14:54:28;13.60;95.00
2639;DHT22;1329;51.384;7.122;2024-02-21T14:56:55;13.60;91.80
2639;DHT22;1329;51.384;7.122;2024-02-21T14:59:22;13.60;92.70
2639;DHT22;1329;51.384;7.122;2024-02-21T15:01:48;13.60;92.10
2639;DHT22;1329;51.384;7.122;2024-02-21T15:04:18;13.50;93.80
2639;DHT22;1329;51.384;7.122;2024-02-21T15:06:45;13.50;93.50
2639;DHT22;1329;51.384;7.122;2024-02-21T15:09:14;13.50;91.00
2639;DHT22;1329;51.384;7.122;2024-02-21T15:11:42;13.50;91.60
2639;DHT22;1329;51.384;7.122;2024-02-21T15:14:09;13.50;90.50
2639;DHT22;1329;51.384;7.122;2024-02-21T15:16:36;13.50;90.20
2639;DHT22;1329;51.384;7.122;2024-02-21T15:19:03;13.40;91.00
2639;DHT22;1329;51.384;7.122;2024-02-21T15:21:30;13.40;89.30
2639;DHT22;1329;51.384;7.122;2024-02-21T15:23:57;13.40;90.30
2639;DHT22;1329;51.384;7.122;2024-02-21T15:26:26;13.30;89.50
2639;DHT22;1329;51.384;7.122;2024-02-21T15:28:55;13.30;85.10
2639;DHT22;1329;51.384;7.122;2024-02-21T15:31:23;13.30;80.30
2639;DHT22;1329;51.384;7.122;2024-02-21T15:33:50;13.20;85.60
2639;DHT22;1329;51.384;7.122;2024-02-21T15:36:18;13.20;88.40
2639;DHT22;1329;51.384;7.122;2024-02-21T15:38:45;13.20;85.00
2639;DHT22;1329;51.384;7.122;2024-02-21T15:41:13;13.20;88.60
2639;DHT22;1329;51.384;7.122;2024-02-21T15:43:40;13.10;87.10
2639;DHT22;1329;51.384;7.122;2024-02-21T15:46:11;13.10;86.90
2639;DHT22;1329;51.384;7.122;2024-02-21T15:48:38;13.10;79.30
2639;DHT22;1329;51.384;7.122;2024-02-21T15:51:06;13.10;85.20
2639;DHT22;1329;51.384;7.122;2024-02-21T15:53:33;13.00;83.70
2639;DHT22;1329;51.384;7.122;2024-02-21T15:56:01;13.00;85.60
2639;DHT22;1329;51.384;7.122;2024-02-21T15:58:29;12.90;83.70
2639;DHT22;1329;51.384;7.122;2024-02-21T16:00:57;12.90;85.20
2639;DHT22;1329;51.384;7.122;2024-02-21T16:03:25;12.90;85.40
2639;DHT22;1329;51.384;7.122;2024-02-21T16:05:52;12.90;81.60
2639;DHT22;1329;51.384;7.122;2024-02-21T16:08:19;12.90;85.80